createdAt,value
2023-03-01T00:00:05.438Z,19.80
2023-03-01T00:02:32.201Z,18.07
2023-03-01T00:04:59.108Z,19.40
2023-03-01T00:07:25.829Z,18.93
2023-03-01T00:09:52.510Z,19.27
2023-03-01T00:12:19.269Z,18.97
2023-03-01T00:14:45.960Z,18.10
2023-03-01T00:17:12.802Z,18.33
2023-03-01T00:19:39.570Z,20.17
2023-03-01T00:22:06.336Z,20.50
2023-03-01T00:24:33.101Z,19.63
2023-03-01T00:27:00.062Z,19.47
2023-03-01T00:29:26.874Z,19.80
2023-03-01T00:31:53.668Z,19.30
2023-03-01T00:34:20.459Z,18.43
2023-03-01T00:36:47.424Z,19.47
2023-03-01T00:39:16.082Z,18.00
2023-03-01T00:41:43.855Z,19.80
2023-03-01T00:44:11.786Z,19.40
2023-03-01T00:46:38.561Z,18.80
2023-03-01T00:49:05.664Z,19.30
2023-03-01T00:51:33.170Z,19.70
2023-03-01T00:54:02.836Z,19.90
2023-03-01T00:56:30.815Z,19.83
2023-03-01T00:58:57.992Z,18.63
2023-03-01T01:01:33.325Z,20.93
2023-03-01T01:04:04.190Z,19.70
2023-03-01T01:06:35.007Z,20.03
2023-03-01T01:09:02.670Z,19.67
2023-03-01T01:11:30.780Z,19.67
2023-03-01T01:13:58.394Z,21.27
2023-03-01T01:16:27.507Z,18.40
2023-03-01T01:18:54.520Z,20.23
2023-03-01T01:21:24.145Z,19.70
2023-03-01T01:23:52.609Z,19.73
2023-03-01T01:26:22.257Z,19.50
2023-03-01T01:28:49.938Z,18.60
2023-03-01T01:31:17.334Z,19.10
2023-03-01T01:33:44.499Z,17.90
2023-03-01T01:36:11.917Z,17.93
2023-03-01T01:38:39.599Z,18.70
2023-03-01T01:41:06.977Z,17.40
2023-03-01T01:43:39.595Z,17.77
2023-03-01T01:46:40.931Z,18.07
2023-03-01T01:49:43.099Z,18.90
2023-03-01T01:52:30.710Z,18.17
2023-03-01T01:55:09.153Z,18.53
2023-03-01T01:57:46.290Z,18.43
2023-03-01T02:00:17.005Z,18.87
2023-03-01T02:02:45.773Z,18.17
2023-03-01T02:05:21.520Z,18.73
2023-03-01T02:07:49.673Z,18.00
2023-03-01T02:10:17.316Z,19.70
2023-03-01T02:12:44.442Z,18.47
2023-03-01T02:15:11.491Z,19.60
2023-03-01T02:17:38.877Z,20.83
2023-03-01T02:20:28.109Z,17.80
2023-03-01T02:22:55.463Z,19.10
2023-03-01T02:25:22.193Z,18.90
2023-03-01T02:28:09.614Z,19.60
2023-03-01T02:30:36.984Z,19.40
2023-03-01T02:33:05.438Z,18.77
2023-03-01T02:35:39.590Z,20.70
2023-03-01T02:38:09.790Z,20.50
2023-03-01T02:40:38.694Z,18.90
2023-03-01T02:43:09.474Z,19.43
2023-03-01T02:45:36.256Z,18.47
2023-03-01T02:48:03.031Z,20.70
2023-03-01T02:50:29.687Z,20.57
2023-03-01T02:53:05.664Z,19.20
2023-03-01T02:55:32.406Z,20.30
2023-03-01T02:58:03.100Z,20.13
2023-03-01T03:00:36.587Z,19.07
2023-03-01T03:03:03.367Z,21.00
2023-03-01T03:05:32.510Z,19.43
2023-03-01T03:08:01.501Z,21.40
2023-03-01T03:10:31.248Z,20.00
2023-03-01T03:13:10.218Z,19.70
2023-03-01T03:15:37.244Z,19.73
2023-03-01T03:18:06.469Z,21.53
2023-03-01T03:20:34.288Z,22.20
2023-03-01T03:23:01.375Z,20.50
2023-03-01T03:25:30.001Z,22.47
2023-03-01T03:27:58.832Z,20.97
2023-03-01T03:30:31.500Z,22.03
2023-03-01T03:32:59.512Z,20.13
2023-03-01T03:35:32.244Z,20.90
2023-03-01T03:38:07.236Z,20.10
2023-03-01T03:40:38.736Z,22.00
2023-03-01T03:43:14.210Z,21.60
2023-03-01T03:45:41.412Z,22.73
2023-03-01T03:48:11.004Z,22.57
2023-03-01T03:50:39.294Z,20.57
2023-03-01T03:53:09.183Z,22.53
2023-03-01T03:55:36.272Z,22.70
2023-03-01T03:58:07.936Z,22.10
2023-03-01T04:00:37.290Z,21.97
2023-03-01T04:03:04.473Z,21.47
2023-03-01T04:05:31.674Z,20.50
2023-03-01T04:08:08.217Z,21.20
2023-03-01T04:10:48.287Z,22.07
2023-03-01T04:13:20.569Z,22.43
2023-03-01T04:15:49.516Z,21.03
2023-03-01T04:18:18.153Z,21.00
2023-03-01T04:20:45.956Z,21.97
2023-03-01T04:23:17.054Z,21.47
2023-03-01T04:25:54.452Z,22.00
2023-03-01T04:28:35.177Z,22.63
2023-03-01T04:31:14.662Z,21.37
2023-03-01T04:33:53.093Z,21.83
2023-03-01T04:36:21.727Z,22.90
2023-03-01T04:38:48.638Z,21.40
2023-03-01T04:41:17.753Z,21.37
2023-03-01T04:43:44.620Z,22.07
2023-03-01T04:46:16.588Z,21.23
2023-03-01T04:48:44.897Z,22.43
2023-03-01T04:51:14.470Z,22.97
2023-03-01T04:53:42.397Z,21.53
2023-03-01T04:56:09.238Z,19.90
2023-03-01T04:58:36.200Z,22.57
2023-03-01T05:01:16.099Z,21.40
2023-03-01T05:03:48.487Z,20.30
2023-03-01T05:06:16.450Z,23.67
2023-03-01T05:08:44.190Z,24.03
2023-03-01T05:11:11.537Z,21.60
2023-03-01T05:13:39.812Z,23.10
2023-03-01T05:16:08.076Z,22.97
2023-03-01T05:18:35.924Z,21.47
2023-03-01T05:21:05.742Z,21.20
2023-03-01T05:23:34.267Z,21.60
2023-03-01T05:26:02.510Z,20.13
2023-03-01T05:28:29.556Z,22.00
2023-03-01T05:30:56.743Z,23.00
2023-03-01T05:33:24.189Z,21.40
2023-03-01T05:35:52.760Z,21.83
2023-03-01T05:38:19.776Z,22.40
2023-03-01T05:40:48.452Z,22.50
2023-03-01T05:43:17.721Z,23.13
2023-03-01T05:45:44.878Z,22.50
2023-03-01T05:48:12.746Z,21.00
2023-03-01T05:50:42.392Z,21.70
2023-03-01T05:53:15.774Z,21.70
2023-03-01T05:55:43.888Z,21.97
2023-03-01T05:58:12.959Z,22.03
2023-03-01T06:00:40.467Z,23.50
2023-03-01T06:03:07.332Z,21.10
2023-03-01T06:05:34.141Z,21.43
2023-03-01T06:08:01.689Z,22.20
2023-03-01T06:10:29.127Z,22.80
2023-03-01T06:12:55.953Z,22.13
2023-03-01T06:15:23.646Z,22.03
2023-03-01T06:17:50.512Z,22.67
2023-03-01T06:20:19.009Z,21.53
2023-03-01T06:22:47.311Z,21.50
2023-03-01T06:25:16.797Z,21.13
2023-03-01T06:27:43.816Z,21.20
2023-03-01T06:30:13.070Z,22.63
2023-03-01T06:32:42.803Z,23.90
2023-03-01T06:35:11.943Z,23.03
2023-03-01T06:37:38.816Z,21.17
2023-03-01T06:40:09.824Z,21.93
2023-03-01T06:42:36.862Z,22.10
2023-03-01T06:45:05.301Z,23.93
2023-03-01T06:47:33.549Z,22.03
2023-03-01T06:50:04.214Z,23.10
2023-03-01T06:52:31.403Z,22.57
2023-03-01T06:54:58.168Z,22.37
2023-03-01T06:57:25.135Z,22.50
2023-03-01T06:59:51.843Z,23.10
2023-03-01T07:02:19.242Z,23.47
2023-03-01T07:04:46.037Z,26.87
2023-03-01T07:07:13.061Z,25.43
2023-03-01T07:09:39.779Z,24.97
2023-03-01T07:12:06.811Z,21.67
2023-03-01T07:14:33.598Z,23.00
2023-03-01T07:17:00.560Z,23.77
2023-03-01T07:19:27.409Z,24.10
2023-03-01T07:21:54.237Z,24.23
2023-03-01T07:24:21.208Z,24.40
2023-03-01T07:26:52.136Z,24.20
2023-03-01T07:29:19.355Z,24.87
2023-03-01T07:31:46.244Z,24.67
2023-03-01T07:34:13.101Z,24.20
2023-03-01T07:36:40.671Z,23.90
2023-03-01T07:39:07.643Z,24.73
2023-03-01T07:41:34.512Z,24.67
2023-03-01T07:44:01.244Z,24.53
2023-03-01T07:46:28.385Z,23.73
2023-03-01T07:48:55.311Z,24.27
2023-03-01T07:51:22.367Z,23.97
2023-03-01T07:53:49.686Z,25.03
2023-03-01T07:56:18.689Z,23.17
2023-03-01T07:58:45.968Z,24.00
2023-03-01T08:01:15.786Z,23.57
2023-03-01T08:03:44.619Z,24.60
2023-03-01T08:06:13.780Z,22.33
2023-03-01T08:08:40.945Z,23.20
2023-03-01T08:11:08.879Z,22.30
2023-03-01T08:13:35.677Z,24.87
2023-03-01T08:16:08.683Z,21.60
2023-03-01T08:18:35.693Z,25.43
2023-03-01T08:21:07.942Z,23.40
2023-03-01T08:23:35.020Z,24.70
2023-03-01T08:26:06.982Z,23.17
2023-03-01T08:28:33.914Z,22.50
2023-03-01T08:31:00.701Z,23.47
2023-03-01T08:33:27.816Z,24.03
2023-03-01T08:36:07.931Z,23.70
2023-03-01T08:38:35.766Z,23.43
2023-03-01T08:41:04.481Z,22.90
2023-03-01T08:43:31.380Z,24.03
2023-03-01T08:45:58.282Z,23.70
2023-03-01T08:48:25.361Z,23.33
2023-03-01T08:50:52.180Z,22.67
2023-03-01T08:53:19.122Z,23.30
2023-03-01T08:55:46.208Z,22.73
2023-03-01T08:58:13.137Z,24.73
2023-03-01T09:00:41.109Z,23.57
2023-03-01T09:03:07.830Z,22.50
2023-03-01T09:05:35.256Z,22.63
2023-03-01T09:08:02.072Z,22.63
2023-03-01T09:10:28.943Z,24.00
2023-03-01T09:12:56.108Z,25.00
2023-03-01T09:15:22.835Z,23.80
2023-03-01T09:17:49.542Z,24.00
2023-03-01T09:20:16.642Z,21.10
2023-03-01T09:22:43.438Z,23.40
2023-03-01T09:25:10.766Z,22.77
2023-03-01T09:27:37.596Z,22.40
2023-03-01T09:30:05.426Z,21.63
2023-03-01T09:32:32.763Z,23.30
2023-03-01T09:35:04.569Z,23.73
2023-03-01T09:37:33.278Z,22.83
2023-03-01T09:40:00.250Z,23.63
2023-03-01T09:42:29.088Z,23.03
2023-03-01T09:45:02.461Z,20.47
2023-03-01T09:47:32.877Z,21.80
2023-03-01T09:50:14.242Z,22.40
2023-03-01T09:52:44.488Z,22.13
2023-03-01T10:18:14.841Z,20.90
2023-03-01T10:21:00.403Z,20.50
2023-03-01T10:23:29.234Z,20.17
2023-03-01T10:26:30.200Z,20.90
2023-03-01T10:29:11.750Z,20.70
2023-03-01T10:31:51.588Z,19.30
2023-03-01T10:34:21.539Z,21.40
2023-03-01T10:36:54.049Z,20.80
2023-03-01T10:39:23.024Z,20.10
2023-03-01T10:41:55.100Z,20.37
2023-03-01T10:44:48.282Z,21.10
2023-03-01T10:47:22.470Z,22.47
2023-03-01T10:50:00.272Z,19.60
2023-03-01T10:52:34.047Z,20.43
2023-03-01T10:55:24.259Z,20.40
2023-03-01T10:57:51.367Z,21.50
2023-03-01T11:00:22.017Z,19.23
2023-03-01T11:02:58.632Z,20.30
2023-03-01T11:05:26.898Z,18.77
2023-03-01T11:07:57.467Z,19.00
2023-03-01T11:10:26.142Z,19.67
2023-03-01T11:13:24.820Z,18.70
2023-03-01T11:16:07.553Z,20.30
2023-03-01T11:18:47.149Z,18.27
2023-03-01T11:21:16.917Z,18.30
2023-03-01T11:23:46.591Z,19.77
2023-03-01T11:26:16.338Z,19.50
2023-03-01T11:28:45.676Z,19.40
2023-03-01T11:31:13.731Z,21.23
2023-03-01T11:34:09.895Z,20.00
2023-03-01T11:36:54.720Z,19.07
2023-03-01T11:39:47.859Z,17.90
2023-03-01T11:42:20.845Z,18.33
2023-03-01T11:44:55.943Z,18.90
2023-03-01T11:47:28.611Z,19.13
2023-03-01T11:50:14.341Z,18.73
2023-03-01T11:53:07.721Z,16.90
2023-03-01T11:55:34.468Z,18.50
2023-03-01T11:58:10.132Z,17.80
2023-03-01T12:01:12.537Z,17.40
2023-03-01T12:03:51.717Z,19.10
2023-03-01T12:06:25.133Z,16.10
2023-03-01T12:09:14.990Z,17.17
2023-03-01T12:12:19.521Z,17.90
2023-03-01T12:15:22.974Z,18.40
2023-03-01T12:18:10.257Z,17.67
2023-03-01T12:21:04.318Z,16.67
2023-03-01T12:23:39.887Z,15.80
2023-03-01T12:26:14.258Z,15.30
2023-03-01T12:29:25.248Z,17.87
2023-03-01T12:32:10.999Z,15.37
2023-03-01T12:35:09.864Z,14.80
2023-03-01T12:38:01.162Z,16.70
2023-03-01T12:40:44.100Z,15.70
2023-03-01T12:43:39.719Z,15.97
2023-03-01T12:46:40.230Z,15.53
2023-03-01T12:49:34.237Z,15.80
2023-03-01T12:52:10.461Z,15.70
2023-03-01T12:54:38.061Z,15.27
2023-03-01T12:57:18.388Z,16.50
2023-03-01T13:00:10.900Z,13.60
2023-03-01T13:03:02.054Z,16.40
2023-03-01T13:05:55.462Z,15.80
2023-03-01T13:08:35.717Z,15.60
2023-03-01T13:11:12.845Z,15.07
2023-03-01T13:13:39.626Z,14.20
2023-03-01T13:16:31.272Z,17.20
2023-03-01T13:19:10.994Z,17.30
2023-03-01T13:21:37.769Z,15.23
2023-03-01T13:24:04.883Z,18.17
2023-03-01T13:26:32.487Z,15.73
2023-03-01T13:29:01.959Z,17.27
2023-03-01T13:31:28.890Z,15.73
2023-03-01T13:34:02.412Z,16.90
2023-03-01T13:36:29.827Z,14.60
2023-03-01T13:38:58.347Z,17.50
2023-03-01T13:41:40.412Z,17.13
2023-03-01T13:44:36.962Z,17.60
2023-03-01T13:47:18.673Z,17.90
2023-03-01T13:50:01.246Z,18.93
2023-03-01T13:52:42.367Z,16.50
2023-03-01T13:55:18.106Z,17.53
2023-03-01T13:57:49.230Z,18.83
2023-03-01T14:00:35.851Z,20.40
2023-03-01T14:03:20.852Z,18.70
2023-03-01T14:06:15.329Z,19.53
2023-03-01T14:08:45.873Z,17.90
2023-03-01T14:11:39.154Z,20.07
2023-03-01T14:14:31.200Z,21.23
2023-03-01T14:17:09.774Z,20.30
2023-03-01T14:19:36.509Z,20.40
2023-03-01T14:22:30.971Z,18.60
2023-03-01T14:25:00.851Z,20.77
2023-03-01T14:27:32.529Z,21.70
2023-03-01T14:30:02.271Z,21.10
2023-03-01T14:32:31.447Z,18.90
2023-03-01T14:35:00.540Z,19.27
2023-03-01T14:37:30.632Z,19.03
2023-03-01T14:39:59.118Z,21.10
2023-03-01T14:42:30.198Z,21.07
2023-03-01T14:44:59.022Z,20.00
2023-03-01T14:47:34.662Z,20.70
2023-03-01T14:50:09.362Z,21.57
2023-03-01T14:52:42.705Z,21.27
2023-03-01T14:55:34.051Z,20.70
2023-03-01T14:58:03.400Z,18.67
2023-03-01T15:00:32.820Z,20.93
2023-03-01T15:03:22.623Z,19.63
2023-03-01T15:05:49.456Z,20.37
2023-03-01T15:08:25.439Z,22.20
2023-03-01T15:11:25.414Z,22.80
2023-03-01T15:13:53.726Z,33.07
2023-03-01T15:16:24.499Z,22.87
2023-03-01T15:18:57.654Z,23.03
2023-03-01T15:21:25.817Z,22.77
2023-03-01T15:24:05.847Z,25.50
2023-03-01T15:26:41.565Z,20.30
2023-03-01T15:29:18.807Z,23.50
2023-03-01T15:31:59.926Z,19.87
2023-03-01T15:34:35.012Z,21.97
2023-03-01T15:37:03.458Z,21.30
2023-03-01T15:39:39.059Z,22.17
2023-03-01T15:42:18.904Z,19.37
2023-03-01T15:44:48.405Z,19.83
2023-03-01T15:47:24.546Z,19.60
2023-03-01T15:49:55.795Z,21.30
2023-03-01T15:52:43.600Z,21.20
2023-03-01T15:55:30.994Z,19.97
2023-03-01T15:58:03.697Z,24.80
2023-03-01T16:00:30.801Z,27.30
2023-03-01T16:02:57.764Z,27.80
2023-03-01T16:05:31.542Z,33.40
2023-03-01T16:07:58.567Z,25.50
2023-03-01T16:10:25.657Z,29.30
2023-03-01T16:12:53.602Z,20.57
2023-03-01T16:15:25.024Z,30.53
2023-03-01T16:17:53.185Z,19.50
2023-03-01T16:20:30.965Z,20.47
2023-03-01T16:23:03.679Z,18.10
2023-03-01T16:25:31.296Z,17.17
2023-03-01T16:27:59.498Z,17.13
2023-03-01T16:30:26.320Z,19.20
2023-03-01T16:32:54.134Z,18.40
2023-03-01T16:35:22.376Z,18.60
2023-03-01T16:37:49.862Z,19.50
2023-03-01T16:40:21.846Z,18.80
2023-03-01T16:42:51.821Z,19.37
2023-03-01T16:45:24.345Z,18.43
2023-03-01T16:47:55.502Z,17.57
2023-03-01T16:50:23.405Z,18.00
2023-03-01T16:52:50.301Z,20.57
2023-03-01T16:55:17.589Z,18.60
2023-03-01T16:57:44.878Z,24.33
2023-03-01T17:00:14.162Z,48.80
2023-03-01T17:02:42.424Z,23.27
2023-03-01T17:05:11.063Z,19.83
2023-03-01T17:07:38.585Z,20.77
2023-03-01T17:10:08.988Z,20.37
2023-03-01T17:12:36.104Z,24.93
2023-03-01T17:15:03.809Z,22.20
2023-03-01T17:17:30.535Z,20.60
2023-03-01T17:19:57.458Z,20.40
2023-03-01T17:22:24.308Z,22.40
2023-03-01T17:24:51.006Z,21.00
2023-03-01T17:27:18.501Z,20.57
2023-03-01T17:29:45.556Z,20.43
2023-03-01T17:32:12.472Z,21.33
2023-03-01T17:34:39.879Z,22.00
2023-03-01T17:37:06.695Z,19.40
2023-03-01T17:39:36.344Z,20.57
2023-03-01T17:42:06.177Z,20.97
2023-03-01T17:44:35.778Z,21.27
2023-03-01T17:47:04.142Z,20.10
2023-03-01T17:49:31.357Z,21.60
2023-03-01T17:51:58.648Z,22.43
2023-03-01T17:54:26.136Z,20.87
2023-03-01T17:56:53.213Z,21.80
2023-03-01T17:59:20.025Z,21.47
2023-03-01T18:01:47.576Z,21.80
2023-03-01T18:04:14.416Z,22.60
2023-03-01T18:06:41.211Z,21.60
2023-03-01T18:09:08.574Z,22.33
2023-03-01T18:11:36.149Z,22.60
2023-03-01T18:14:04.324Z,23.00
2023-03-01T18:16:33.974Z,22.73
2023-03-01T18:19:01.984Z,22.50
2023-03-01T18:21:34.490Z,18.70
2023-03-01T18:24:01.929Z,13.00
2023-03-01T18:26:29.814Z,19.87
2023-03-01T18:28:58.397Z,17.30
2023-03-01T18:31:25.901Z,23.63
2023-03-01T18:33:55.103Z,22.60
2023-03-01T18:36:24.815Z,35.30
2023-03-01T18:38:56.556Z,22.40
2023-03-01T18:41:25.626Z,22.70
2023-03-01T18:43:53.717Z,21.87
2023-03-01T18:46:20.617Z,25.20
2023-03-01T18:48:48.178Z,24.10
2023-03-01T18:51:20.637Z,24.17
2023-03-01T18:53:47.496Z,23.00
2023-03-01T18:56:17.694Z,24.80
2023-03-01T18:58:45.761Z,24.13
2023-03-01T19:01:21.287Z,24.70
2023-03-01T19:03:48.208Z,26.13
2023-03-01T19:06:15.222Z,25.07
2023-03-01T19:08:44.405Z,26.20
2023-03-01T19:11:14.026Z,25.30
2023-03-01T19:13:41.331Z,25.30
2023-03-01T19:16:11.580Z,23.47
2023-03-01T19:18:42.337Z,25.50
2023-03-01T19:21:11.110Z,24.90
2023-03-01T19:23:39.001Z,24.63
2023-03-01T19:26:09.856Z,25.23
2023-03-01T19:28:39.196Z,26.53
2023-03-01T19:31:08.766Z,26.50
2023-03-01T19:33:36.619Z,25.27
2023-03-01T19:36:04.158Z,26.20
2023-03-01T19:38:31.101Z,40.03
2023-03-01T19:40:58.135Z,27.27
2023-03-01T19:43:25.340Z,25.70
2023-03-01T19:45:54.846Z,25.77
2023-03-01T19:48:23.184Z,26.73
2023-03-01T19:50:53.093Z,26.30
2023-03-01T19:53:20.807Z,25.83
2023-03-01T19:55:48.479Z,26.67
2023-03-01T19:58:15.381Z,26.50
2023-03-01T20:00:46.570Z,25.63
2023-03-01T20:03:14.274Z,25.43
2023-03-01T20:05:43.117Z,25.73
2023-03-01T20:08:13.185Z,24.60
2023-03-01T20:10:43.493Z,25.50
2023-03-01T20:13:12.647Z,23.40
2023-03-01T20:15:43.009Z,25.33
2023-03-01T20:18:11.446Z,26.03
2023-03-01T20:20:41.404Z,25.53
2023-03-01T20:23:08.373Z,26.17
2023-03-01T20:25:35.289Z,26.70
2023-03-01T20:28:02.983Z,26.30
2023-03-01T20:30:29.919Z,27.83
2023-03-01T20:32:56.922Z,26.40
2023-03-01T20:35:24.133Z,25.70
2023-03-01T20:37:54.984Z,25.50
2023-03-01T20:40:26.967Z,24.97
2023-03-01T20:42:57.731Z,26.00
2023-03-01T20:45:27.981Z,24.40
2023-03-01T20:47:55.515Z,25.17
2023-03-01T20:50:22.616Z,24.13
2023-03-01T20:52:49.539Z,24.90
2023-03-01T20:55:16.896Z,22.67
2023-03-01T20:57:43.879Z,27.47
2023-03-01T21:00:11.444Z,36.87
2023-03-01T21:02:39.006Z,45.33
2023-03-01T21:05:06.760Z,45.63
2023-03-01T21:07:33.939Z,29.63
2023-03-01T21:10:00.859Z,25.10
2023-03-01T21:12:27.857Z,23.53
2023-03-01T21:14:54.678Z,23.00
2023-03-01T21:17:21.507Z,24.40
2023-03-01T21:19:49.811Z,25.13
2023-03-01T21:22:16.735Z,22.50
2023-03-01T21:24:43.646Z,25.00
2023-03-01T21:27:11.124Z,23.07
2023-03-01T21:29:43.485Z,23.27
2023-03-01T21:32:11.678Z,23.70
2023-03-01T21:34:39.610Z,23.97
2023-03-01T21:37:08.270Z,22.90
2023-03-01T21:39:35.266Z,25.23
2023-03-01T21:42:03.875Z,23.87
2023-03-01T21:44:31.614Z,23.77
2023-03-01T21:46:59.059Z,24.37
2023-03-01T21:49:27.008Z,24.10
2023-03-01T21:51:54.125Z,23.83
2023-03-01T21:54:21.401Z,24.03
2023-03-01T21:56:48.967Z,25.90
2023-03-01T21:59:18.583Z,25.00
2023-03-01T22:01:46.850Z,24.63
2023-03-01T22:04:14.511Z,24.30
2023-03-01T22:06:43.894Z,24.20
2023-03-01T22:09:14.922Z,23.60
2023-03-01T22:11:45.411Z,25.00
2023-03-01T22:14:13.930Z,24.73
2023-03-01T22:16:45.201Z,25.30
2023-03-01T22:19:14.223Z,26.33
2023-03-01T22:21:44.305Z,25.00
2023-03-01T22:24:12.556Z,23.90
2023-03-01T22:26:44.786Z,27.10
2023-03-01T22:29:14.583Z,23.30
2023-03-01T22:31:41.877Z,25.47
2023-03-01T22:34:09.483Z,24.50
2023-03-01T22:36:36.944Z,24.87
2023-03-01T22:39:04.436Z,26.43
2023-03-01T22:41:44.983Z,24.87
2023-03-01T22:44:13.076Z,25.50
2023-03-01T22:46:40.086Z,26.30
2023-03-01T22:49:07.129Z,24.73
2023-03-01T22:51:37.350Z,25.63
2023-03-01T22:54:04.575Z,25.03
2023-03-01T22:56:34.638Z,26.27
2023-03-01T22:59:04.939Z,26.57
2023-03-01T23:01:31.940Z,23.40
2023-03-01T23:03:58.963Z,23.20
2023-03-01T23:06:25.809Z,25.10
2023-03-01T23:08:54.850Z,23.27
2023-03-01T23:11:22.884Z,24.43
2023-03-01T23:13:50.424Z,23.53
2023-03-01T23:16:17.868Z,24.20
2023-03-01T23:18:45.186Z,23.97
2023-03-01T23:21:14.759Z,23.57
2023-03-01T23:23:42.170Z,25.30
2023-03-01T23:26:09.682Z,25.13
2023-03-01T23:28:40.792Z,25.73
2023-03-01T23:31:10.243Z,24.10
2023-03-01T23:33:40.191Z,25.57
2023-03-01T23:36:32.457Z,24.10
2023-03-01T23:39:02.293Z,24.27
2023-03-01T23:41:31.816Z,25.00
2023-03-01T23:44:00.357Z,24.47
2023-03-01T23:46:29.957Z,25.63
2023-03-01T23:48:57.252Z,26.80
2023-03-01T23:51:25.280Z,27.37
2023-03-01T23:53:57.473Z,25.93
2023-03-01T23:56:33.232Z,26.63
2023-03-01T23:59:04.022Z,26.63
